createdAt,value
2019-05-15T00:00:55.660Z,1.93
2019-05-15T00:04:03.075Z,1.93
2019-05-15T00:07:10.298Z,2.13
2019-05-15T00:10:18.227Z,3.63
2019-05-15T00:13:25.538Z,2.00
2019-05-15T00:16:33.138Z,2.70
2019-05-15T00:19:40.303Z,3.23
2019-05-15T00:22:48.520Z,2.60
2019-05-15T00:25:58.271Z,2.47
2019-05-15T00:29:12.883Z,2.57
2019-05-15T00:32:14.635Z,2.37
2019-05-15T00:35:21.903Z,2.83
2019-05-15T00:38:29.486Z,2.50
2019-05-15T00:41:50.817Z,2.40
2019-05-15T00:44:46.503Z,2.70
2019-05-15T00:47:54.332Z,3.47
2019-05-15T00:51:01.706Z,3.40
2019-05-15T00:54:08.868Z,2.83
2019-05-15T00:57:16.181Z,2.90
2019-05-15T01:00:40.081Z,2.97
2019-05-15T01:03:49.178Z,4.27
2019-05-15T01:06:58.461Z,3.40
2019-05-15T01:10:06.547Z,3.53
2019-05-15T01:13:13.820Z,3.23
2019-05-15T01:16:21.015Z,5.53
2019-05-15T01:19:28.903Z,3.00
2019-05-15T01:22:39.037Z,3.53
2019-05-15T01:25:48.045Z,3.80
2019-05-15T01:28:55.220Z,3.50
2019-05-15T01:32:02.733Z,3.83
2019-05-15T01:35:10.696Z,4.40
2019-05-15T01:38:18.720Z,3.77
2019-05-15T01:41:28.175Z,5.27
2019-05-15T01:44:35.476Z,3.70
2019-05-15T01:47:42.723Z,4.23
2019-05-15T01:50:49.997Z,3.53
2019-05-15T01:53:58.414Z,3.23
2019-05-15T01:57:05.742Z,3.27
2019-05-15T02:00:13.637Z,3.60
2019-05-15T02:03:20.882Z,4.53
2019-05-15T02:06:28.580Z,3.60
2019-05-15T02:09:35.927Z,4.77
2019-05-15T02:12:43.451Z,4.47
2019-05-15T02:15:50.639Z,7.13
2019-05-15T02:18:58.198Z,5.97
2019-05-15T02:22:08.293Z,4.47
2019-05-15T02:25:15.686Z,4.80
2019-05-15T02:28:22.944Z,5.87
2019-05-15T02:31:30.547Z,5.60
2019-05-15T02:34:39.496Z,5.27
2019-05-15T02:37:48.870Z,5.90
2019-05-15T02:40:59.260Z,5.77
2019-05-15T02:44:06.402Z,5.73
2019-05-15T02:47:13.874Z,4.43
2019-05-15T02:50:21.700Z,3.67
2019-05-15T02:53:30.054Z,5.37
2019-05-15T02:56:39.238Z,5.53
2019-05-15T02:59:49.494Z,6.73
2019-05-15T03:02:56.045Z,3.93
2019-05-15T03:06:03.529Z,5.97
2019-05-15T03:09:10.698Z,4.97
2019-05-15T03:12:19.543Z,6.90
2019-05-15T03:15:28.940Z,5.57
2019-05-15T03:18:39.429Z,6.70
2019-05-15T03:21:45.575Z,7.23
2019-05-15T03:24:52.927Z,4.97
2019-05-15T03:28:00.312Z,7.03
2019-05-15T03:31:26.227Z,5.23
2019-05-15T03:34:23.513Z,6.00
2019-05-15T03:37:32.628Z,4.83
2019-05-15T03:40:39.360Z,5.50
2019-05-15T03:43:45.423Z,4.30
2019-05-15T03:46:53.344Z,5.77
2019-05-15T03:50:01.057Z,4.83
2019-05-15T03:53:10.094Z,5.20
2019-05-15T03:56:19.100Z,6.37
2019-05-15T03:59:29.450Z,5.50
2019-05-15T04:02:39.002Z,5.10
2019-05-15T04:05:45.685Z,7.27
2019-05-15T04:08:52.929Z,4.67
2019-05-15T04:12:00.218Z,6.83
2019-05-15T04:15:09.966Z,5.37
2019-05-15T04:18:19.859Z,6.93
2019-05-15T04:21:30.226Z,3.83
2019-05-15T04:24:39.531Z,7.40
2019-05-15T04:27:49.272Z,5.10
2019-05-15T04:31:15.222Z,3.70
2019-05-15T04:34:23.185Z,4.50
2019-05-15T04:37:30.354Z,5.07
2019-05-15T04:40:39.714Z,3.90
2019-05-15T04:43:49.405Z,3.83
2019-05-15T04:46:59.448Z,3.63
2019-05-15T04:50:08.866Z,3.63
2019-05-15T04:53:19.064Z,3.30
2019-05-15T04:56:25.201Z,3.77
2019-05-15T04:59:32.552Z,6.30
2019-05-15T05:02:40.544Z,3.73
2019-05-15T05:05:50.043Z,3.43
2019-05-15T05:08:59.702Z,3.03
2019-05-15T05:12:08.533Z,3.10
2019-05-15T05:15:18.831Z,2.77
2019-05-15T05:18:25.277Z,5.10
2019-05-15T05:21:32.788Z,3.10
2019-05-15T05:24:39.952Z,3.67
2019-05-15T05:27:48.631Z,3.73
2019-05-15T05:30:58.578Z,4.37
2019-05-15T05:34:08.127Z,3.13
2019-05-15T05:37:15.034Z,4.60
2019-05-15T05:40:22.629Z,3.57
2019-05-15T05:43:30.472Z,3.03
2019-05-15T05:46:39.751Z,3.07
2019-05-15T05:49:48.832Z,3.73
2019-05-15T05:52:57.944Z,2.87
2019-05-15T05:56:05.245Z,3.17
2019-05-15T05:59:12.402Z,2.20
2019-05-15T06:02:19.674Z,5.40
2019-05-15T06:05:28.100Z,6.37
2019-05-15T06:08:35.717Z,2.33
2019-05-15T06:11:42.978Z,4.53
2019-05-15T06:14:50.137Z,2.00
2019-05-15T06:17:58.565Z,2.80
2019-05-15T06:21:08.531Z,3.07
2019-05-15T06:24:15.045Z,2.40
2019-05-15T06:27:22.477Z,4.73
2019-05-15T06:30:31.154Z,5.30
2019-05-15T06:33:39.213Z,4.63
2019-05-15T06:36:48.591Z,2.27
2019-05-15T06:39:55.711Z,3.33
2019-05-15T06:43:03.213Z,5.27
2019-05-15T06:46:10.764Z,2.27
2019-05-15T06:49:18.703Z,5.50
2019-05-15T06:52:28.309Z,2.30
2019-05-15T06:55:35.625Z,2.47
2019-05-15T06:58:43.293Z,3.73
2019-05-15T07:01:51.020Z,3.30
2019-05-15T07:04:58.527Z,3.93
2019-05-15T07:08:08.891Z,2.43
2019-05-15T07:11:15.940Z,4.57
2019-05-15T07:14:23.862Z,6.90
2019-05-15T07:17:31.170Z,3.90
2019-05-15T07:20:39.153Z,1.90
2019-05-15T07:23:49.356Z,3.13
2019-05-15T07:26:58.930Z,2.07
2019-05-15T07:30:07.794Z,2.73
2019-05-15T07:33:15.372Z,4.30
2019-05-15T07:36:23.078Z,4.70
2019-05-15T07:39:30.432Z,1.77
2019-05-15T07:42:38.948Z,3.60
2019-05-15T07:45:52.378Z,2.00
2019-05-15T07:48:58.165Z,6.90
2019-05-15T07:52:05.253Z,1.87
2019-05-15T07:55:12.757Z,2.97
2019-05-15T07:58:21.806Z,2.60
2019-05-15T08:01:29.473Z,2.90
2019-05-15T08:04:38.090Z,5.13
2019-05-15T08:07:46.016Z,3.70
2019-05-15T08:10:53.473Z,2.57
2019-05-15T08:14:03.614Z,3.70
2019-05-15T08:17:10.167Z,4.57
2019-05-15T08:20:20.560Z,1.70
2019-05-15T08:23:28.480Z,5.67
2019-05-15T08:26:37.939Z,4.80
2019-05-15T08:29:48.566Z,4.20
2019-05-15T08:32:55.652Z,2.83
2019-05-15T08:36:03.117Z,2.17
2019-05-15T08:39:10.499Z,4.40
2019-05-15T08:42:18.829Z,2.47
2019-05-15T08:45:28.324Z,2.73
2019-05-15T08:48:38.140Z,4.00
2019-05-15T08:51:45.103Z,5.17
2019-05-15T08:54:52.511Z,4.33
2019-05-15T08:58:07.530Z,2.40
2019-05-15T09:01:10.001Z,4.07
2019-05-15T09:04:29.724Z,5.10
2019-05-15T09:07:28.721Z,4.87
2019-05-15T09:10:38.489Z,3.80
2019-05-15T09:13:46.119Z,3.60
2019-05-15T09:16:53.434Z,3.80
2019-05-15T09:20:00.917Z,3.30
2019-05-15T09:23:08.955Z,3.13
2019-05-15T09:26:19.254Z,3.37
2019-05-15T09:29:25.424Z,5.03
2019-05-15T09:32:33.501Z,3.83
2019-05-15T09:35:40.639Z,3.43
2019-05-15T09:38:49.089Z,3.43
2019-05-15T09:41:57.899Z,2.60
2019-05-15T09:45:08.715Z,3.83
2019-05-15T09:48:16.085Z,3.23
2019-05-15T09:51:23.437Z,4.00
2019-05-15T09:54:31.100Z,3.03
2019-05-15T09:57:38.965Z,4.03
2019-05-15T10:00:51.330Z,2.83
2019-05-15T10:03:56.340Z,3.80
2019-05-15T10:07:04.288Z,3.17
2019-05-15T10:10:11.852Z,5.20
2019-05-15T10:13:19.549Z,3.63
2019-05-15T10:16:27.252Z,3.43
2019-05-15T10:19:34.958Z,4.77
2019-05-15T10:22:42.635Z,4.20
2019-05-15T10:25:50.798Z,3.07
2019-05-15T10:28:58.733Z,5.40
2019-05-15T10:32:08.659Z,2.73
2019-05-15T10:35:25.770Z,2.40
2019-05-15T10:38:28.308Z,4.73
2019-05-15T10:41:35.566Z,4.27
2019-05-15T10:44:42.908Z,4.50
2019-05-15T10:47:50.429Z,5.50
2019-05-15T10:51:05.508Z,3.83
2019-05-15T10:54:08.577Z,2.53
2019-05-15T10:57:18.804Z,2.70
2019-05-15T11:00:28.329Z,1.90
2019-05-15T11:03:35.601Z,3.53
2019-05-15T11:06:43.157Z,3.10
2019-05-15T11:09:50.548Z,3.97
2019-05-15T11:12:58.148Z,1.80
2019-05-15T11:16:06.057Z,4.13
2019-05-15T11:19:13.731Z,3.57
2019-05-15T11:22:21.481Z,2.03
2019-05-15T11:25:30.169Z,2.87
2019-05-15T11:28:39.016Z,2.87
2019-05-15T11:31:48.748Z,3.63
2019-05-15T11:34:58.272Z,8.57
2019-05-15T11:38:09.628Z,2.23
2019-05-15T11:41:19.230Z,2.50
2019-05-15T11:44:28.093Z,2.40
2019-05-15T11:47:39.069Z,9.97
2019-05-15T11:50:46.185Z,4.20
2019-05-15T11:53:53.828Z,2.83
2019-05-15T11:57:01.528Z,2.67
2019-05-15T12:00:17.175Z,1.80
2019-05-15T12:03:19.797Z,2.67
2019-05-15T12:06:29.199Z,3.43
2019-05-15T12:09:38.801Z,2.33
2019-05-15T12:12:49.480Z,2.07
2019-05-15T12:15:55.881Z,2.33
2019-05-15T12:19:09.014Z,4.00
2019-05-15T12:22:12.903Z,4.43
2019-05-15T12:25:20.065Z,2.20
2019-05-15T12:28:29.557Z,2.07
2019-05-15T12:31:38.828Z,2.80
2019-05-15T12:34:49.269Z,6.50
2019-05-15T12:37:55.144Z,2.43
2019-05-15T13:00:01.359Z,3.57
2019-05-15T13:03:09.236Z,2.73
2019-05-15T13:06:19.247Z,4.53
2019-05-15T13:09:27.775Z,3.00
2019-05-15T13:12:38.752Z,4.97
2019-05-15T13:15:48.132Z,2.47
2019-05-15T13:18:55.444Z,3.13
2019-05-15T13:22:02.711Z,4.47
2019-05-15T13:25:12.276Z,1.67
2019-05-15T13:28:20.195Z,4.00
2019-05-15T13:31:28.395Z,1.97
2019-05-15T13:34:38.765Z,4.17
2019-05-15T13:37:45.566Z,2.83
2019-05-15T13:40:53.662Z,3.87
2019-05-15T13:44:01.476Z,2.67
2019-05-15T13:47:09.110Z,2.57
2019-05-15T13:50:19.436Z,5.60
2019-05-15T13:53:27.729Z,4.63
2019-05-15T13:56:34.975Z,6.57
2019-05-15T13:59:42.415Z,3.10
2019-05-15T14:02:49.663Z,3.07
2019-05-15T14:05:58.380Z,2.43
2019-05-15T14:09:08.729Z,2.50
2019-05-15T14:12:17.968Z,1.93
2019-05-15T14:15:25.473Z,4.13
2019-05-15T14:18:32.838Z,2.60
2019-05-15T14:21:40.276Z,7.20
2019-05-15T14:24:48.880Z,3.40
2019-05-15T14:27:59.124Z,5.10
2019-05-15T14:31:09.519Z,2.37
2019-05-15T14:34:18.530Z,3.40
2019-05-15T14:37:25.418Z,2.13
2019-05-15T14:40:32.917Z,3.63
2019-05-15T14:43:40.284Z,2.47
2019-05-15T14:46:50.688Z,3.83
2019-05-15T14:49:58.369Z,3.07
2019-05-15T14:53:06.394Z,4.00
2019-05-15T14:56:13.617Z,3.93
2019-05-15T14:59:21.756Z,3.10
2019-05-15T15:02:29.237Z,3.07
2019-05-15T15:05:38.858Z,3.73
2019-05-15T15:08:46.462Z,2.70
2019-05-15T15:11:55.612Z,3.47
2019-05-15T15:15:04.202Z,3.07
2019-05-15T15:18:11.785Z,6.60
2019-05-15T15:21:22.656Z,5.87
2019-05-15T15:24:29.239Z,3.13
2019-05-15T15:27:38.771Z,6.23
2019-05-15T15:30:48.515Z,3.70
2019-05-15T15:33:57.942Z,3.30
2019-05-15T15:37:05.549Z,4.23
2019-05-15T15:40:15.178Z,5.47
2019-05-15T15:43:22.873Z,5.63
2019-05-15T15:46:30.911Z,4.20
2019-05-15T15:49:38.944Z,6.10
2019-05-15T15:52:48.843Z,4.57
2019-05-15T15:55:56.032Z,4.77
2019-05-15T15:59:03.837Z,6.40
2019-05-15T16:02:11.553Z,3.67
2019-05-15T16:05:19.345Z,3.87
2019-05-15T16:08:28.554Z,5.57
2019-05-15T16:11:38.410Z,4.77
2019-05-15T16:14:48.664Z,4.57
2019-05-15T16:17:55.982Z,4.50
2019-05-15T16:21:03.751Z,6.37
2019-05-15T16:24:17.411Z,6.10
2019-05-15T16:27:20.819Z,6.10
2019-05-15T16:30:28.435Z,5.30
2019-05-15T16:33:38.846Z,4.00
2019-05-15T16:36:45.987Z,3.60
2019-05-15T16:39:53.141Z,5.73
2019-05-15T16:43:00.646Z,3.90
2019-05-15T16:46:09.222Z,4.70
2019-05-15T16:49:18.719Z,4.87
2019-05-15T16:52:26.122Z,3.77
2019-05-15T16:55:33.503Z,6.60
2019-05-15T16:58:40.706Z,6.03
2019-05-15T17:01:48.897Z,3.67
2019-05-15T17:04:56.678Z,4.97
2019-05-15T17:08:04.236Z,4.33
2019-05-15T17:11:11.491Z,5.60
2019-05-15T17:14:19.980Z,6.93
2019-05-15T17:17:27.442Z,4.20
2019-05-15T17:20:34.712Z,3.53
2019-05-15T17:23:41.976Z,3.50
2019-05-15T17:26:49.241Z,4.17
2019-05-15T17:29:58.456Z,6.13
2019-05-15T17:33:05.922Z,6.10
2019-05-15T17:36:13.061Z,3.60
2019-05-15T17:39:33.824Z,5.23
2019-05-15T17:42:29.796Z,4.60
2019-05-15T17:45:38.989Z,5.27
2019-05-15T17:48:54.236Z,5.77
2019-05-15T17:51:58.097Z,3.63
2019-05-15T17:55:05.654Z,5.27
2019-05-15T17:58:13.161Z,4.83
2019-05-15T18:01:20.651Z,5.43
2019-05-15T18:04:28.332Z,4.77
2019-05-15T18:07:35.819Z,3.57
2019-05-15T18:10:43.107Z,3.77
2019-05-15T18:13:50.563Z,4.07
2019-05-15T18:16:58.557Z,5.60
2019-05-15T18:20:09.411Z,5.13
2019-05-15T18:23:15.443Z,3.57
2019-05-15T18:26:23.080Z,3.30
2019-05-15T18:29:30.615Z,4.70
2019-05-15T18:32:39.266Z,4.70
2019-05-15T18:35:48.517Z,6.87
2019-05-15T18:38:58.685Z,6.23
2019-05-15T18:42:06.029Z,4.83
2019-05-15T18:45:14.244Z,5.03
2019-05-15T18:48:21.605Z,6.33
2019-05-15T18:51:29.089Z,5.60
2019-05-15T18:54:38.291Z,4.17
2019-05-15T18:57:45.645Z,5.97
2019-05-15T19:00:53.624Z,4.30
2019-05-15T19:04:01.744Z,6.17
2019-05-15T19:07:09.066Z,5.30
2019-05-15T19:10:18.716Z,4.53
2019-05-15T19:13:28.166Z,5.00
2019-05-15T19:16:38.518Z,5.53
2019-05-15T19:19:44.558Z,4.33
2019-05-15T19:22:52.287Z,5.07
2019-05-15T19:25:59.476Z,4.50
2019-05-15T19:29:08.249Z,5.63
2019-05-15T19:32:17.751Z,6.57
2019-05-15T19:35:27.855Z,6.93
2019-05-15T19:38:34.891Z,7.33
2019-05-15T19:41:42.853Z,7.30
2019-05-15T19:44:50.233Z,5.30
2019-05-15T19:47:58.651Z,5.33
2019-05-15T19:51:08.968Z,6.60
2019-05-15T19:54:18.208Z,10.43
2019-05-15T19:57:25.425Z,5.93
2019-05-15T20:00:32.937Z,5.93
2019-05-15T20:03:49.265Z,6.63
2019-05-15T20:06:49.477Z,6.33
2019-05-15T20:09:58.408Z,5.97
2019-05-15T20:13:06.321Z,7.63
2019-05-15T20:16:13.491Z,8.13
2019-05-15T20:19:21.242Z,6.47
2019-05-15T20:22:28.804Z,5.40
2019-05-15T20:25:38.268Z,7.93
2019-05-15T20:28:48.110Z,6.77
2019-05-15T20:31:55.905Z,7.43
2019-05-15T20:35:05.036Z,6.27
2019-05-15T20:38:13.327Z,7.10
2019-05-15T20:41:20.539Z,7.00
2019-05-15T20:44:27.988Z,9.43
2019-05-15T20:47:38.588Z,8.87
2019-05-15T20:50:48.096Z,9.70
2019-05-15T20:53:54.936Z,7.37
2019-05-15T20:57:02.733Z,9.17
2019-05-15T21:00:13.311Z,6.87
2019-05-15T21:03:20.560Z,8.70
2019-05-15T21:06:28.335Z,7.00
2019-05-15T21:09:35.682Z,9.23
2019-05-15T21:12:43.065Z,9.67
2019-05-15T21:15:50.675Z,8.37
2019-05-15T21:19:00.227Z,8.20
2019-05-15T21:22:08.354Z,7.53
2019-05-15T21:25:19.108Z,9.03
2019-05-15T21:28:27.788Z,7.77
2019-05-15T21:31:37.968Z,7.10
2019-05-15T21:34:44.777Z,8.43
2019-05-15T21:37:52.042Z,8.20
2019-05-15T21:40:59.762Z,7.50
2019-05-15T21:44:08.499Z,8.33
2019-05-15T21:47:16.029Z,9.30
2019-05-15T21:50:24.228Z,9.60
2019-05-15T21:53:31.688Z,8.73
2019-05-15T21:56:38.983Z,8.07
2019-05-15T21:59:46.523Z,9.27
2019-05-15T22:02:54.121Z,8.87
2019-05-15T22:06:01.593Z,7.73
2019-05-15T22:09:13.341Z,6.90
2019-05-15T22:12:20.831Z,7.47
2019-05-15T22:15:28.723Z,11.47
2019-05-15T22:18:38.462Z,7.77
2019-05-15T22:21:45.860Z,7.63
2019-05-15T22:24:53.211Z,8.17
2019-05-15T22:28:00.582Z,7.57
2019-05-15T22:31:08.862Z,7.07
2019-05-15T22:34:18.422Z,8.50
2019-05-15T22:37:25.775Z,8.03
2019-05-15T22:40:33.315Z,6.63
2019-05-15T22:43:40.571Z,7.73
2019-05-15T22:46:48.775Z,9.17
2019-05-15T22:49:56.075Z,7.53
2019-05-15T22:53:03.737Z,9.40
2019-05-15T22:56:11.454Z,8.13
2019-05-15T22:59:18.935Z,10.57
2019-05-15T23:02:26.287Z,7.50
2019-05-15T23:05:33.435Z,7.97
2019-05-15T23:08:41.199Z,7.70
2019-05-15T23:11:48.555Z,8.90
2019-05-15T23:14:57.831Z,8.00
2019-05-15T23:18:05.288Z,8.60
2019-05-15T23:21:12.555Z,7.87
2019-05-15T23:24:20.131Z,7.93
2019-05-15T23:27:28.753Z,7.63
2019-05-15T23:30:36.564Z,8.40
2019-05-15T23:33:44.367Z,8.53
2019-05-15T23:36:51.508Z,8.63
2019-05-15T23:39:58.772Z,10.03
2019-05-15T23:43:08.694Z,8.17
2019-05-15T23:46:15.366Z,8.73
2019-05-15T23:49:22.583Z,7.83
2019-05-15T23:52:29.838Z,7.97
2019-05-15T23:55:37.262Z,9.00
2019-05-15T23:58:44.445Z,8.07
